Time;durP1;ratioP1;P1;durP2;ratioP2;P2;SDS_P1;SDS_P2;PMS_P1;PMS_P2;Temp;Humidity;BMP_temperature;BMP_pressure;BME280_temperature;BME280_humidity;BME280_pressure;Samples;Min_cycle;Max_cycle;Signal;HPM_P1;HPM_P2
2021/06/01 00:01:53;;;;;;;;;;;;;;;9.74;85.03;95525.92;1833239;78;20153;-66
2021/06/01 00:04:20;;;;;;;;;;;;;;;9.74;85.06;95524.14;1833334;78;20156;-67
2021/06/01 00:06:46;;;;;;;;;;;;;;;9.73;84.73;95527.69;1833072;78;20505;-67
2021/06/01 00:09:16;;;;;;;;;;;;;;;9.70;84.51;95517.63;1833327;78;20145;-67
2021/06/01 00:11:43;;;;;;;;;;;;;;;9.58;84.68;95522.67;1833141;78;20140;-67
2021/06/01 00:14:11;;;;;;;;;;;;;;;9.55;85.27;95529.31;1833089;78;20156;-67
2021/06/01 00:16:38;;;;;;;;;;;;;;;9.49;85.37;95524.98;1833221;78;20504;-66
2021/06/01 00:19:07;;;;;;;;;;;;;;;9.44;85.73;95532.09;1833237;78;20164;-66
2021/06/01 00:21:35;;;;;;;;;;;;;;;9.40;85.85;95528.20;1833231;78;20152;-66
2021/06/01 00:24:02;;;;;;;;;;;;;;;9.31;85.69;95531.41;1833118;78;20136;-66
2021/06/01 00:26:29;;;;;;;;;;;;;;;9.29;85.86;95527.05;1833145;78;20496;-66
2021/06/01 00:28:55;;;;;;;;;;;;;;;9.30;86.38;95538.03;1833270;78;20144;-66
2021/06/01 00:31:21;;;;;;;;;;;;;;;9.28;86.22;95531.91;1833220;78;20148;-66
2021/06/01 00:33:48;;;;;;;;;;;;;;;9.21;86.01;95531.56;1833212;78;20140;-66
2021/06/01 00:36:15;;;;;;;;;;;;;;;9.18;85.60;95531.62;1832941;78;20546;-66
2021/06/01 00:38:41;;;;;;;;;;;;;;;9.05;85.73;95530.92;1833004;78;20164;-67
2021/06/01 00:41:07;;;;;;;;;;;;;;;9.02;85.67;95521.72;1833334;78;20156;-66
2021/06/01 00:43:34;;;;;;;;;;;;;;;9.00;85.67;95527.03;1801317;78;20164;-67
2021/06/01 00:46:01;;;;;;;;;;;;;;;8.97;86.37;95528.81;1833145;78;20125;-67
2021/06/01 00:48:27;;;;;;;;;;;;;;;8.87;86.13;95526.77;1832999;78;20176;-66
2021/06/01 00:50:54;;;;;;;;;;;;;;;8.83;86.29;95525.93;1833223;78;20164;-66
2021/06/01 00:53:21;;;;;;;;;;;;;;;8.84;86.12;95528.11;1833342;78;20155;-66
2021/06/01 00:55:48;;;;;;;;;;;;;;;8.79;86.23;95531.24;1833096;78;20128;-66
2021/06/01 00:58:15;;;;;;;;;;;;;;;8.79;86.20;95533.42;1833218;78;20185;-66
2021/06/01 01:03:10;;;;;;;;;;;;;;;8.71;87.03;95527.84;1833081;78;20144;-66
2021/06/01 01:05:39;;;;;;;;;;;;;;;8.71;86.72;95522.58;1833279;78;20148;-66
2021/06/01 01:08:33;;;;;;;;;;;;;;;8.66;86.52;95530.08;1833237;78;20132;-66
2021/06/01 01:10:51;;;;;;;;;;;;;;;8.57;87.03;95522.77;1830382;78;20141;-66
2021/06/01 01:13:18;;;;;;;;;;;;;;;8.53;86.91;95527.63;1833215;78;20137;-66
2021/06/01 01:15:47;;;;;;;;;;;;;;;8.50;87.21;95525.91;1833029;78;20137;-66
2021/06/01 01:18:17;;;;;;;;;;;;;;;8.47;87.63;95528.99;1833322;78;20175;-67
2021/06/01 01:20:49;;;;;;;;;;;;;;;8.52;87.27;95526.77;1833322;78;20175;-67
2021/06/01 01:23:17;;;;;;;;;;;;;;;8.54;87.27;95526.72;1833597;78;20160;-66
2021/06/01 01:26:08;;;;;;;;;;;;;;;8.57;87.07;95519.69;1833357;78;20160;-67
2021/06/01 01:28:56;;;;;;;;;;;;;;;8.61;86.96;95527.08;1833359;78;20160;-66
2021/06/01 01:31:41;;;;;;;;;;;;;;;8.58;87.20;95520.55;1833630;78;20196;-66
2021/06/01 01:34:08;;;;;;;;;;;;;;;8.66;87.48;95514.30;1833475;78;20184;-66
2021/06/01 01:36:36;;;;;;;;;;;;;;;8.82;87.55;95511.05;1833312;78;20152;-66
2021/06/01 01:39:04;;;;;;;;;;;;;;;8.87;86.96;95509.22;1833126;78;20153;-66
2021/06/01 01:41:36;;;;;;;;;;;;;;;8.86;86.38;95505.28;1833257;78;20133;-67
2021/06/01 01:44:07;;;;;;;;;;;;;;;8.82;86.45;95507.52;1833533;78;20144;-64
2021/06/01 01:49:18;;;;;;;;;;;;;;;8.78;86.15;95504.07;1833479;78;20141;-66
2021/06/01 01:51:48;;;;;;;;;;;;;;;8.80;86.59;95504.92;1801300;78;20192;-66
2021/06/01 01:54:16;;;;;;;;;;;;;;;8.93;86.49;95506.95;1833227;78;20136;-66
2021/06/01 01:56:46;;;;;;;;;;;;;;;8.98;86.36;95507.75;1833352;78;20450;-67
2021/06/01 01:59:14;;;;;;;;;;;;;;;8.87;86.01;95501.33;1833402;78;20133;-66
2021/06/01 02:01:43;;;;;;;;;;;;;;;8.94;86.09;95497.28;1833230;78;20152;-67
2021/06/01 02:04:11;;;;;;;;;;;;;;;8.98;85.59;95500.31;1833447;78;20152;-67
2021/06/01 02:06:37;;;;;;;;;;;;;;;8.84;85.28;95500.06;1833207;78;20164;-66
2021/06/01 02:09:05;;;;;;;;;;;;;;;8.75;85.16;95502.80;1833452;78;20132;-66
2021/06/01 02:11:32;;;;;;;;;;;;;;;8.70;85.53;95496.73;1833263;78;20132;-66
2021/06/01 02:14:02;;;;;;;;;;;;;;;8.66;85.35;95496.33;1833283;78;20138;-66
2021/06/01 02:16:31;;;;;;;;;;;;;;;8.54;85.37;95501.33;1833427;78;20144;-66
2021/06/01 02:18:58;;;;;;;;;;;;;;;8.54;85.06;95499.11;1833239;78;20172;-66
2021/06/01 02:21:34;;;;;;;;;;;;;;;8.51;84.95;95499.16;1833273;78;20144;-66
2021/06/01 02:24:04;;;;;;;;;;;;;;;8.37;84.65;95500.16;1833372;78;20120;-67
2021/06/01 02:26:37;;;;;;;;;;;;;;;8.21;84.57;95497.27;1832035;78;20148;-67
2021/06/01 02:29:10;;;;;;;;;;;;;;;8.13;84.69;95494.72;1833582;78;20152;-67
2021/06/01 02:31:39;;;;;;;;;;;;;;;8.05;84.85;95497.02;1832951;78;20125;-66
2021/06/01 02:34:07;;;;;;;;;;;;;;;7.92;84.95;95492.33;1833128;78;20121;-67
2021/06/01 02:36:36;;;;;;;;;;;;;;;7.77;85.77;95491.59;1833217;78;20132;-67
2021/06/01 02:39:04;;;;;;;;;;;;;;;7.76;85.64;95491.17;1833335;78;20152;-66
2021/06/01 02:41:30;;;;;;;;;;;;;;;7.72;85.68;95497.33;1833150;78;20145;-67
2021/06/01 02:43:57;;;;;;;;;;;;;;;7.69;85.83;95495.19;1833447;78;20330;-66
2021/06/01 02:46:24;;;;;;;;;;;;;;;7.59;85.52;95493.94;1801323;78;20489;-66
2021/06/01 02:48:51;;;;;;;;;;;;;;;7.56;85.41;95500.53;1833301;78;20129;-66
2021/06/01 02:51:19;;;;;;;;;;;;;;;7.53;85.84;95508.45;1833299;78;20184;-66
2021/06/01 02:53:52;;;;;;;;;;;;;;;7.47;85.90;95508.48;1833303;78;20168;-66
2021/06/01 02:56:18;;;;;;;;;;;;;;;7.45;86.97;95510.69;1833025;78;20498;-66
2021/06/01 02:58:46;;;;;;;;;;;;;;;7.42;87.71;95511.58;1833283;78;20141;-66
2021/06/01 03:01:16;;;;;;;;;;;;;;;7.44;88.13;95512.45;1833195;78;20154;-66
2021/06/01 03:03:45;;;;;;;;;;;;;;;7.46;88.53;95506.75;1833129;78;20145;-67
2021/06/01 03:06:11;;;;;;;;;;;;;;;7.48;87.86;95510.20;1833564;78;20159;-67
2021/06/01 03:08:39;;;;;;;;;;;;;;;7.45;88.01;95515.48;1833325;78;20470;-67
2021/06/01 03:11:06;;;;;;;;;;;;;;;7.48;88.49;95520.70;1833201;78;20223;-66
2021/06/01 03:13:33;;;;;;;;;;;;;;;7.53;88.79;95528.55;1833289;78;20152;-66
2021/06/01 03:15:59;;;;;;;;;;;;;;;7.57;88.45;95521.09;1833440;78;20164;-66
2021/06/01 03:18:26;;;;;;;;;;;;;;;7.59;88.03;95527.21;1833307;78;20152;-66
2021/06/01 03:20:53;;;;;;;;;;;;;;;7.67;87.67;95526.70;1833312;78;20485;-66
2021/06/01 03:23:19;;;;;;;;;;;;;;;7.75;87.42;95523.55;1833317;78;20141;-66
2021/06/01 03:25:46;;;;;;;;;;;;;;;7.77;87.77;95523.55;1833222;78;20159;-66
2021/06/01 03:28:14;;;;;;;;;;;;;;;7.83;87.80;95522.62;1833066;78;20485;-66
2021/06/01 03:30:41;;;;;;;;;;;;;;;7.94;87.81;95524.27;1833297;78;20164;-66
2021/06/01 03:33:07;;;;;;;;;;;;;;;8.04;87.97;95527.69;1833199;78;20475;-66
2021/06/01 03:35:33;;;;;;;;;;;;;;;8.05;87.24;95528.10;1833239;78;20164;-66
2021/06/01 03:38:00;;;;;;;;;;;;;;;7.99;87.23;95522.92;1833171;78;20493;-66
2021/06/01 03:40:26;;;;;;;;;;;;;;;7.99;87.67;95525.55;1833113;78;20141;-67
2021/06/01 03:42:53;;;;;;;;;;;;;;;8.00;87.67;95522.88;1833016;78;20501;-67
2021/06/01 03:45:22;;;;;;;;;;;;;;;8.11;87.50;95524.53;1833243;78;20136;-68
2021/06/01 03:47:49;;;;;;;;;;;;;;;8.18;87.02;95524.91;1833249;78;20140;-67
2021/06/01 03:50:16;;;;;;;;;;;;;;;8.19;87.14;95516.16;1833247;78;20161;-66
2021/06/01 03:52:42;;;;;;;;;;;;;;;8.24;87.14;95513.03;1833072;78;20505;-66
2021/06/01 03:55:09;;;;;;;;;;;;;;;8.28;87.16;95512.54;1833350;78;20148;-66
2021/06/01 03:57:36;;;;;;;;;;;;;;;8.22;87.64;95514.80;1833111;78;20160;-66
2021/06/01 04:00:05;;;;;;;;;;;;;;;8.34;87.62;95519.03;1833287;78;20155;-66
2021/06/01 04:02:33;;;;;;;;;;;;;;;8.41;87.39;95519.42;1831946;78;20504;-66
2021/06/01 04:04:59;;;;;;;;;;;;;;;8.52;87.68;95524.58;1833006;78;20136;-66
2021/06/01 04:07:26;;;;;;;;;;;;;;;8.69;87.86;95516.02;1833224;78;20121;-66
2021/06/01 04:09:52;;;;;;;;;;;;;;;8.88;87.15;95515.34;1833266;78;20176;-67
2021/06/01 04:12:19;;;;;;;;;;;;;;;8.99;86.41;95516.06;1832800;78;20144;-67
2021/06/01 04:14:45;;;;;;;;;;;;;;;9.12;86.56;95516.76;1833203;78;20455;-67
2021/06/01 04:17:11;;;;;;;;;;;;;;;9.31;86.39;95512.97;1833340;78;20140;-66
2021/06/01 04:19:38;;;;;;;;;;;;;;;9.48;85.58;95517.98;1833109;78;20520;-67
2021/06/01 04:22:04;;;;;;;;;;;;;;;9.55;84.91;95518.78;1833345;78;20156;-67
2021/06/01 04:24:30;;;;;;;;;;;;;;;9.57;84.77;95516.96;1833315;78;20141;-67
2021/06/01 04:26:58;;;;;;;;;;;;;;;9.61;84.36;95516.03;1833005;78;20144;-66
2021/06/01 04:29:25;;;;;;;;;;;;;;;9.68;84.09;95515.04;1833132;78;20477;-66
2021/06/01 04:31:51;;;;;;;;;;;;;;;9.63;84.31;95511.61;1833246;78;20192;-66
2021/06/01 04:34:18;;;;;;;;;;;;;;;9.69;84.72;95523.35;1833063;78;20485;-66
2021/06/01 04:36:44;;;;;;;;;;;;;;;9.79;83.90;95523.22;1833225;78;20137;-66
2021/06/01 04:39:11;;;;;;;;;;;;;;;9.77;83.09;95531.12;1833344;78;20489;-66
2021/06/01 04:41:38;;;;;;;;;;;;;;;9.78;83.43;95524.98;1831084;78;20161;-67
2021/06/01 04:44:06;;;;;;;;;;;;;;;9.78;83.79;95534.20;1831063;78;20505;-66
2021/06/01 04:46:34;;;;;;;;;;;;;;;9.79;83.30;95541.20;1831029;78;20509;-67
2021/06/01 04:49:01;;;;;;;;;;;;;;;9.75;83.30;95534.23;1829969;78;20184;-67
2021/06/01 04:51:28;;;;;;;;;;;;;;;9.71;83.17;95538.70;1831296;78;20172;-67
2021/06/01 04:53:57;;;;;;;;;;;;;;;9.69;83.21;95538.30;1831063;78;20157;-68
2021/06/01 04:56:26;;;;;;;;;;;;;;;9.63;83.87;95537.09;1831079;78;20470;-67
2021/06/01 04:58:53;;;;;;;;;;;;;;;9.63;84.65;95534.00;1831123;78;20489;-66
2021/06/01 05:01:20;;;;;;;;;;;;;;;9.70;84.98;95529.48;1831039;78;20144;-66
2021/06/01 05:03:47;;;;;;;;;;;;;;;9.72;85.34;95532.52;1831001;78;20216;-66
2021/06/01 05:06:13;;;;;;;;;;;;;;;9.80;84.72;95524.94;1831223;78;20168;-66
2021/06/01 05:08:40;;;;;;;;;;;;;;;9.82;85.03;95529.28;1831192;78;20212;-66
2021/06/01 05:11:06;;;;;;;;;;;;;;;9.88;85.25;95530.98;1831166;78;20167;-66
2021/06/01 05:13:32;;;;;;;;;;;;;;;10.00;85.01;95528.10;1831060;78;20136;-66
2021/06/01 05:15:58;;;;;;;;;;;;;;;10.10;85.30;95534.09;1831168;78;20155;-66
2021/06/01 05:18:25;;;;;;;;;;;;;;;10.23;84.29;95534.31;1831363;78;20140;-67
2021/06/01 05:20:51;;;;;;;;;;;;;;;10.33;84.53;95535.02;1831015;78;20489;-66
2021/06/01 05:23:17;;;;;;;;;;;;;;;10.44;83.87;95537.02;1831009;78;20152;-67
2021/06/01 05:25:44;;;;;;;;;;;;;;;10.55;83.46;95533.72;1831098;78;20141;-66
2021/06/01 05:28:12;;;;;;;;;;;;;;;10.66;82.98;95537.91;1830929;78;20193;-66
2021/06/01 05:30:51;;;;;;;;;;;;;;;10.78;82.84;95541.63;1831063;78;20137;-66
2021/06/01 05:33:12;;;;;;;;;;;;;;;10.74;82.33;95538.19;1829561;78;20136;-67
2021/06/01 05:35:45;;;;;;;;;;;;;;;10.85;82.48;95543.70;1831114;78;20239;-67
2021/06/01 05:38:10;;;;;;;;;;;;;;;10.97;82.66;95539.03;1830834;78;20188;-67
2021/06/01 05:40:37;;;;;;;;;;;;;;;11.15;81.91;95539.55;1833618;78;20156;-67
2021/06/01 05:43:04;;;;;;;;;;;;;;;11.29;81.88;95540.55;1838739;78;20136;-67
2021/06/01 05:45:30;;;;;;;;;;;;;;;11.37;81.78;95534.21;1839210;78;20175;-66
2021/06/01 05:47:56;;;;;;;;;;;;;;;11.46;81.65;95534.02;1839199;78;20141;-66
2021/06/01 05:50:23;;;;;;;;;;;;;;;11.55;81.22;95527.63;1838757;78;20544;-66
2021/06/01 05:52:49;;;;;;;;;;;;;;;11.66;81.11;95526.05;1839270;78;20140;-66
2021/06/01 05:55:16;;;;;;;;;;;;;;;11.75;80.94;95526.30;1838979;78;20157;-66
2021/06/01 05:57:42;;;;;;;;;;;;;;;11.68;80.12;95525.56;1838703;78;20136;-66
2021/06/01 06:00:10;;;;;;;;;;;;;;;11.74;80.38;95520.57;1839117;78;20206;-67
2021/06/01 06:02:36;;;;;;;;;;;;;;;11.89;80.43;95527.73;1839017;78;20152;-67
2021/06/01 06:05:03;;;;;;;;;;;;;;;12.05;80.33;95523.38;1838877;78;20156;-67
2021/06/01 06:07:30;;;;;;;;;;;;;;;12.02;79.12;95526.08;1839152;78;20175;-67
2021/06/01 06:09:56;;;;;;;;;;;;;;;12.11;80.33;95528.49;1839308;78;20130;-67
2021/06/01 06:12:23;;;;;;;;;;;;;;;12.22;80.99;95537.47;1838963;78;20493;-67
2021/06/01 06:14:49;;;;;;;;;;;;;;;12.37;79.75;95534.41;1839285;78;20160;-67
2021/06/01 06:17:27;;;;;;;;;;;;;;;12.50;79.40;95533.66;1839064;78;20505;-67
2021/06/01 06:19:55;;;;;;;;;;;;;;;12.63;79.12;95539.48;1839025;78;20152;-66
2021/06/01 06:22:22;;;;;;;;;;;;;;;12.73;79.12;95533.89;1839206;78;20508;-66
2021/06/01 06:24:48;;;;;;;;;;;;;;;12.80;77.11;95535.92;1839079;78;20200;-66
2021/06/01 06:27:14;;;;;;;;;;;;;;;12.89;75.86;95536.96;1838902;78;20160;-66
2021/06/01 06:29:41;;;;;;;;;;;;;;;12.95;74.33;95526.21;1839202;78;20171;-66
2021/06/01 06:32:08;;;;;;;;;;;;;;;12.91;73.07;95527.20;1839179;78;20156;-67
2021/06/01 06:34:34;;;;;;;;;;;;;;;12.95;73.41;95520.91;1839055;78;20143;-67
2021/06/01 06:37:00;;;;;;;;;;;;;;;13.06;73.56;95524.56;1809433;78;20128;-67
2021/06/01 06:39:27;;;;;;;;;;;;;;;13.09;72.29;95517.84;1838958;78;20629;-67
2021/06/01 06:41:53;;;;;;;;;;;;;;;13.13;72.45;95515.53;1834772;78;20140;-67
2021/06/01 06:44:20;;;;;;;;;;;;;;;13.20;71.77;95513.55;1833373;78;20136;-68
2021/06/01 06:47:03;;;;;;;;;;;;;;;13.28;69.98;95501.42;1833241;78;20156;-68
2021/06/01 06:49:15;;;;;;;;;;;;;;;13.32;70.34;95504.40;1829704;78;20144;-67
2021/06/01 06:51:41;;;;;;;;;;;;;;;13.40;70.85;95503.69;1833203;78;20140;-67
2021/06/01 06:54:07;;;;;;;;;;;;;;;13.53;70.83;95498.88;1833387;78;20129;-67
2021/06/01 06:56:33;;;;;;;;;;;;;;;13.58;68.45;95504.47;1833443;78;20156;-66
2021/06/01 06:59:00;;;;;;;;;;;;;;;13.70;67.58;95507.16;1833051;78;20493;-66
2021/06/01 07:01:27;;;;;;;;;;;;;;;13.82;68.90;95503.25;1801162;78;20216;-66
2021/06/01 07:03:55;;;;;;;;;;;;;;;13.96;69.21;95508.98;1833304;78;20155;-66
2021/06/01 07:06:23;;;;;;;;;;;;;;;13.97;66.15;95509.84;1833263;78;20156;-66
2021/06/01 07:08:50;;;;;;;;;;;;;;;14.07;66.25;95509.48;1833165;78;20145;-65
2021/06/01 07:11:16;;;;;;;;;;;;;;;14.14;67.26;95507.96;1833270;78;20161;-64
2021/06/01 07:13:51;;;;;;;;;;;;;;;14.28;65.91;95509.20;1833200;78;20144;-64
2021/06/01 07:16:18;;;;;;;;;;;;;;;14.46;65.53;95512.13;1833066;78;20470;-65
2021/06/01 07:18:46;;;;;;;;;;;;;;;14.61;65.03;95515.60;1833493;78;20164;-64
2021/06/01 07:21:13;;;;;;;;;;;;;;;14.63;60.71;95513.77;1833258;78;20136;-65
2021/06/01 07:23:40;;;;;;;;;;;;;;;14.71;63.49;95516.15;1833232;78;20534;-65
2021/06/01 07:26:07;;;;;;;;;;;;;;;14.75;58.75;95514.27;1833221;78;20168;-65
2021/06/01 07:28:34;;;;;;;;;;;;;;;14.77;59.72;95514.61;1832909;78;20140;-64
2021/06/01 07:31:01;;;;;;;;;;;;;;;14.79;60.40;95518.52;1833160;78;20183;-64
2021/06/01 07:33:28;;;;;;;;;;;;;;;15.06;63.12;95522.83;1833250;78;20153;-64
2021/06/01 07:35:54;;;;;;;;;;;;;;;15.28;61.83;95523.36;1833138;78;20140;-64
2021/06/01 07:38:21;;;;;;;;;;;;;;;15.46;62.62;95526.63;1833272;78;20173;-64
2021/06/01 07:40:47;;;;;;;;;;;;;;;15.66;60.83;95519.67;1830657;78;20172;-64
2021/06/01 07:43:13;;;;;;;;;;;;;;;15.54;60.50;95519.68;1819990;79;20137;-64
2021/06/01 07:45:40;;;;;;;;;;;;;;;15.31;59.73;95529.88;1820334;79;20176;-64
2021/06/01 07:48:07;;;;;;;;;;;;;;;15.27;59.07;95532.23;1820253;79;20164;-65
2021/06/01 07:50:33;;;;;;;;;;;;;;;15.20;59.52;95531.62;1820153;79;20164;-64
2021/06/01 07:53:00;;;;;;;;;;;;;;;15.29;60.55;95534.38;1820243;79;20477;-64
2021/06/01 07:55:26;;;;;;;;;;;;;;;15.36;60.17;95524.78;1820254;79;20481;-64
2021/06/01 07:57:53;;;;;;;;;;;;;;;15.25;59.29;95531.45;1820005;79;20161;-65
2021/06/01 08:00:26;;;;;;;;;;;;;;;15.07;58.97;95525.91;1820225;79;20176;-64
2021/06/01 08:02:50;;;;;;;;;;;;;;;14.83;56.94;95523.67;1818847;79;20181;-64
2021/06/01 08:05:18;;;;;;;;;;;;;;;14.80;57.36;95522.47;1819913;79;20153;-64
2021/06/01 08:07:45;;;;;;;;;;;;;;;15.12;60.87;95516.44;1820422;79;20193;-64
2021/06/01 08:10:12;;;;;;;;;;;;;;;15.46;59.06;95513.80;1820323;79;20153;-64
2021/06/01 08:12:38;;;;;;;;;;;;;;;15.48;55.83;95515.48;1820188;79;20137;-64
2021/06/01 08:15:06;;;;;;;;;;;;;;;15.65;58.67;95516.16;1820234;79;20141;-64
2021/06/01 08:17:32;;;;;;;;;;;;;;;15.75;56.70;95513.56;1820027;79;20157;-65
2021/06/01 08:20:09;;;;;;;;;;;;;;;15.86;59.57;95513.59;1820124;79;20160;-65
2021/06/01 08:24:55;;;;;;;;;;;;;;;15.99;58.70;95522.32;1820046;79;20168;-65
2021/06/01 08:27:21;;;;;;;;;;;;;;;16.20;58.39;95521.92;1820233;79;20146;-65
2021/06/01 08:29:48;;;;;;;;;;;;;;;16.36;55.92;95515.47;1820106;79;20180;-65
2021/06/01 08:32:14;;;;;;;;;;;;;;;16.50;55.61;95520.67;1820241;79;20145;-64
2021/06/01 08:34:40;;;;;;;;;;;;;;;16.31;50.64;95524.12;1820180;79;20181;-64
2021/06/01 08:37:06;;;;;;;;;;;;;;;16.13;52.96;95524.91;1820303;79;20149;-65
2021/06/01 08:39:32;;;;;;;;;;;;;;;16.04;54.74;95523.47;1820244;79;20145;-64
2021/06/01 08:41:59;;;;;;;;;;;;;;;16.19;55.75;95526.83;1826465;78;20176;-64
2021/06/01 08:44:27;;;;;;;;;;;;;;;16.35;54.19;95521.71;1831145;78;20517;-64
2021/06/01 08:46:55;;;;;;;;;;;;;;;16.60;55.24;95522.86;1830887;78;20489;-64
2021/06/01 08:49:21;;;;;;;;;;;;;;;16.94;52.45;95528.09;1831189;78;20492;-64
2021/06/01 08:51:49;;;;;;;;;;;;;;;17.24;51.60;95526.31;1831289;78;20205;-64
2021/06/01 08:54:15;;;;;;;;;;;;;;;17.40;53.56;95525.13;1831098;78;20172;-64
2021/06/01 08:56:43;;;;;;;;;;;;;;;17.63;53.28;95526.71;1831263;78;20128;-65
2021/06/01 08:59:10;;;;;;;;;;;;;;;17.98;51.61;95521.05;1830968;78;20537;-64
2021/06/01 09:01:36;;;;;;;;;;;;;;;18.16;50.76;95521.94;1831074;78;20175;-64
2021/06/01 09:04:07;;;;;;;;;;;;;;;18.32;47.62;95518.91;1831303;78;20163;-64
2021/06/01 09:06:46;;;;;;;;;;;;;;;18.52;49.08;95527.26;1831038;78;20149;-64
2021/06/01 09:12:27;;;;;;;;;;;;;;;18.84;48.53;95528.76;1831169;78;20164;-64
2021/06/01 09:22:57;;;;;;;;;;;;;;;19.27;45.24;95530.49;1831417;78;20156;-64
2021/06/01 09:27:57;;;;;;;;;;;;;;;19.37;48.48;95522.36;1831107;78;20140;-64
2021/06/01 09:30:39;;;;;;;;;;;;;;;19.41;49.06;95521.73;1831084;78;20136;-64
2021/06/01 09:33:08;;;;;;;;;;;;;;;19.75;49.82;95520.75;1831179;78;20128;-64
2021/06/01 09:35:53;;;;;;;;;;;;;;;20.03;47.66;95519.19;1831049;78;20145;-64
2021/06/01 09:38:28;;;;;;;;;;;;;;;20.06;45.63;95522.58;1831189;78;20497;-64
2021/06/01 09:41:17;;;;;;;;;;;;;;;20.07;46.15;95521.61;1822688;78;20141;-65
2021/06/01 09:43:56;;;;;;;;;;;;;;;19.92;49.36;95529.18;1803643;80;20165;-64
2021/06/01 09:46:34;;;;;;;;;;;;;;;20.02;46.21;95525.03;1803722;80;20542;-64
2021/06/01 09:49:16;;;;;;;;;;;;;;;20.26;46.44;95527.23;1803608;80;20161;-64
2021/06/01 09:51:57;;;;;;;;;;;;;;;20.35;45.63;95520.50;1803144;80;20161;-64
2021/06/01 09:54:38;;;;;;;;;;;;;;;20.26;43.50;95518.75;1803738;80;20165;-64
2021/06/01 09:57:24;;;;;;;;;;;;;;;20.14;44.03;95514.58;1803665;80;20177;-64
2021/06/01 10:00:11;;;;;;;;;;;;;;;19.39;43.41;95519.13;1803703;80;20184;-64
2021/06/01 10:02:40;;;;;;;;;;;;;;;19.21;45.10;95527.68;1803667;80;20177;-64
2021/06/01 10:05:19;;;;;;;;;;;;;;;18.60;45.98;95529.06;1803775;80;20193;-64
2021/06/01 10:07:50;;;;;;;;;;;;;;;18.37;47.73;95526.22;1803834;80;20178;-64
2021/06/01 10:10:25;;;;;;;;;;;;;;;18.00;47.38;95531.66;1803669;80;20172;-64
2021/06/01 10:13:01;;;;;;;;;;;;;;;17.74;48.74;95533.28;1803322;80;20568;-64
2021/06/01 10:15:29;;;;;;;;;;;;;;;17.45;49.98;95535.11;1803254;80;20189;-64
2021/06/01 10:17:56;;;;;;;;;;;;;;;17.20;49.75;95540.70;1803676;80;20177;-64
2021/06/01 10:20:24;;;;;;;;;;;;;;;16.89;49.51;95539.89;1803745;80;20161;-64
2021/06/01 10:22:51;;;;;;;;;;;;;;;16.77;50.61;95534.59;1803805;80;20482;-64
2021/06/01 10:25:18;;;;;;;;;;;;;;;16.94;51.37;95538.75;1803693;80;20244;-64
2021/06/01 10:27:46;;;;;;;;;;;;;;;17.04;51.63;95539.20;1803829;80;20176;-64
2021/06/01 10:30:14;;;;;;;;;;;;;;;17.03;51.21;95530.80;1803705;80;20486;-64
2021/06/01 10:32:47;;;;;;;;;;;;;;;17.04;49.56;95527.22;1803739;80;20173;-64
2021/06/01 10:35:17;;;;;;;;;;;;;;;17.05;49.73;95524.94;1803817;80;20237;-64
2021/06/01 10:52:03;;;;;;;;;;;;;;;17.87;46.39;95514.05;1831095;78;20176;-66
2021/06/01 10:54:47;;;;;;;;;;;;;;;18.18;43.51;95518.73;1831413;78;20204;-65
2021/06/01 10:57:15;;;;;;;;;;;;;;;18.44;45.05;95513.41;1831506;78;20168;-64
2021/06/01 11:02:26;;;;;;;;;;;;;;;18.79;47.39;95512.95;1831320;78;20164;-64
2021/06/01 11:05:01;;;;;;;;;;;;;;;18.60;44.77;95518.84;1831147;78;20148;-64
2021/06/01 11:10:01;;;;;;;;;;;;;;;18.06;46.30;95512.66;1797788;78;20216;-64
2021/06/01 11:12:38;;;;;;;;;;;;;;;17.83;47.27;95513.30;1831225;78;20156;-64
2021/06/01 11:15:26;;;;;;;;;;;;;;;17.60;47.63;95515.72;1830866;78;20534;-64
2021/06/01 11:17:52;;;;;;;;;;;;;;;17.48;48.04;95510.48;1831260;78;20152;-64
2021/06/01 11:20:35;;;;;;;;;;;;;;;17.23;47.28;95505.89;1803660;78;20157;-64
2021/06/01 11:23:25;;;;;;;;;;;;;;;17.17;48.38;95513.72;1829226;78;20180;-64
2021/06/01 11:33:57;;;;;;;;;;;;;;;17.67;47.82;95502.96;1831142;78;20485;-65
2021/06/01 11:36:23;;;;;;;;;;;;;;;18.56;50.42;95499.89;1831097;78;20136;-64
2021/06/01 11:38:56;;;;;;;;;;;;;;;18.48;44.65;95498.09;1804043;78;20365;-64
2021/06/01 11:44:24;;;;;;;;;;;;;;;17.66;44.98;95499.88;1830986;78;20148;-64
2021/06/01 11:52:04;;;;;;;;;;;;;;;17.34;46.74;95506.28;1831384;78;20212;-64
2021/06/01 11:54:32;;;;;;;;;;;;;;;17.05;46.76;95515.12;1831304;78;20159;-64
2021/06/01 12:18:59;;;;;;;;;;;;;;;17.58;49.32;95505.58;1831350;78;20157;-64
2021/06/01 12:21:30;;;;;;;;;;;;;;;17.71;47.31;95509.86;1831331;78;20144;-64
2021/06/01 12:24:04;;;;;;;;;;;;;;;17.80;45.24;95507.27;1831242;78;20157;-64
2021/06/01 12:32:13;;;;;;;;;;;;;;;17.69;51.03;95520.63;1831123;78;20224;-65
2021/06/01 12:46:08;;;;;;;;;;;;;;;18.25;50.69;95527.31;1838814;78;20150;-67
2021/06/01 13:06:18;;;;;;;;;;;;;;;17.71;50.85;95553.45;1838859;78;20148;-64
2021/06/01 13:19:28;;;;;;;;;;;;;;;16.46;56.68;95564.36;1839032;78;20139;-65
2021/06/01 13:22:11;;;;;;;;;;;;;;;16.07;56.42;95556.61;1832310;78;20140;-64
2021/06/01 13:30:30;;;;;;;;;;;;;;;15.87;55.76;95554.75;1839080;78;20132;-64
2021/06/01 13:46:52;;;;;;;;;;;;;;;19.41;49.08;95544.00;1820248;79;20176;-65
2021/06/01 13:57:10;;;;;;;;;;;;;;;19.46;48.18;95557.98;1820495;79;20161;-65
2021/06/01 14:02:41;;;;;;;;;;;;;;;18.86;48.18;95566.98;1819965;79;20145;-64
2021/06/01 14:10:51;;;;;;;;;;;;;;;16.72;50.78;95604.06;1820373;79;20168;-64
2021/06/01 15:03:44;;;;;;;;;;;;;;;12.73;72.93;95620.39;1820430;79;20161;-67
2021/06/01 15:32:00;;;;;;;;;;;;;;;13.60;74.13;95634.30;1793116;79;20161;-65
2021/06/01 16:23:15;;;;;;;;;;;;;;;13.07;76.47;95669.33;1803593;80;20160;-66
2021/06/01 16:31:37;;;;;;;;;;;;;;;13.15;74.77;95675.74;1803542;80;20152;-66
2021/06/01 16:42:27;;;;;;;;;;;;;;;12.92;75.80;95682.52;1803762;80;20466;-66
2021/06/01 17:04:16;;;;;;;;;;;;;;;12.87;77.91;95689.72;1820092;79;20172;-66
2021/06/01 17:06:42;;;;;;;;;;;;;;;12.89;77.56;95691.02;1818104;79;20157;-66
2021/06/01 17:11:44;;;;;;;;;;;;;;;12.89;78.25;95693.20;1819983;79;20193;-66
2021/06/01 17:14:11;;;;;;;;;;;;;;;12.81;78.27;95691.67;1793291;79;20128;-66
2021/06/01 17:30:25;;;;;;;;;;;;;;;12.48;78.08;95692.48;1820328;79;20156;-67
2021/06/01 17:35:03;;;;;;;;;;;;;;;12.17;79.21;95702.03;1791073;79;20172;-66
2021/06/01 17:37:28;;;;;;;;;;;;;;;12.10;79.97;95710.13;1820233;79;20152;-66
2021/06/01 17:39:55;;;;;;;;;;;;;;;11.98;80.83;95713.04;1820097;79;20157;-66
2021/06/01 17:42:26;;;;;;;;;;;;;;;11.87;81.27;95717.25;1820218;79;20474;-66
2021/06/01 17:44:53;;;;;;;;;;;;;;;11.81;80.43;95714.69;1827410;78;20208;-66
2021/06/01 17:47:22;;;;;;;;;;;;;;;11.71;79.64;95717.11;1830914;78;20220;-66
2021/06/01 17:49:49;;;;;;;;;;;;;;;11.67;80.15;95725.57;1831084;78;20152;-66
2021/06/01 17:52:29;;;;;;;;;;;;;;;11.59;80.10;95724.86;1831185;78;20156;-66
2021/06/01 17:54:58;;;;;;;;;;;;;;;11.51;79.70;95729.41;1830674;78;20163;-66
2021/06/01 17:57:28;;;;;;;;;;;;;;;11.50;79.88;95732.10;1831266;78;20205;-67
2021/06/01 17:59:55;;;;;;;;;;;;;;;11.46;80.16;95740.52;1831189;78;20137;-66
2021/06/01 18:02:23;;;;;;;;;;;;;;;11.33;81.18;95746.49;1831261;78;20199;-66
2021/06/01 18:04:51;;;;;;;;;;;;;;;11.31;80.90;95746.10;1831168;78;20184;-66
2021/06/01 18:07:29;;;;;;;;;;;;;;;11.32;80.76;95747.86;1831248;78;20144;-66
2021/06/01 18:34:54;;;;;;;;;;;;;;;10.81;80.04;95758.88;1831343;78;20141;-67
2021/06/01 18:40:48;;;;;;;;;;;;;;;10.82;80.10;95757.11;1831218;78;20176;-66
2021/06/01 18:51:28;;;;;;;;;;;;;;;10.48;79.49;95777.45;1833278;78;20168;-66
2021/06/01 19:21:33;;;;;;;;;;;;;;;9.90;80.96;95816.02;1833430;78;20183;-66
2021/06/01 19:51:11;;;;;;;;;;;;;;;9.23;82.76;95830.78;1833113;78;20156;-66
2021/06/01 19:53:40;;;;;;;;;;;;;;;9.20;82.56;95835.22;1832985;78;20497;-66
2021/06/01 19:56:07;;;;;;;;;;;;;;;9.17;82.94;95839.17;1833269;78;20171;-66
2021/06/01 19:58:34;;;;;;;;;;;;;;;9.13;83.19;95843.61;1833360;78;20480;-66
2021/06/01 20:01:08;;;;;;;;;;;;;;;9.16;83.16;95842.70;1833152;78;20136;-66
2021/06/01 20:03:35;;;;;;;;;;;;;;;9.20;82.61;95847.94;1833171;78;20172;-66
2021/06/01 20:06:04;;;;;;;;;;;;;;;9.22;82.09;95843.53;1833151;78;20172;-66
2021/06/01 20:08:30;;;;;;;;;;;;;;;9.25;81.67;95843.95;1833234;78;20164;-66